sensor_id;sensor_type;location;lat;lon;timestamp;P1;durP1;ratioP1;P2;durP2;ratioP2
1140;SDS011;559;48.628;8.924;2023-07-29T00:00:36;163.90;;;154.90;;
1140;SDS011;559;48.628;8.924;2023-07-29T00:03:07;160.10;;;151.30;;
1140;SDS011;559;48.628;8.924;2023-07-29T00:05:34;164.20;;;155.30;;
1140;SDS011;559;48.628;8.924;2023-07-29T00:08:00;165.37;;;156.57;;
1140;SDS011;559;48.628;8.924;2023-07-29T00:10:28;170.60;;;159.97;;
1140;SDS011;559;48.628;8.924;2023-07-29T00:12:55;167.93;;;158.50;;
1140;SDS011;559;48.628;8.924;2023-07-29T00:15:24;163.40;;;154.43;;
1140;SDS011;559;48.628;8.924;2023-07-29T00:17:52;161.17;;;152.03;;
1140;SDS011;559;48.628;8.924;2023-07-29T00:20:21;163.93;;;154.80;;
1140;SDS011;559;48.628;8.924;2023-07-29T00:22:48;158.57;;;149.50;;
1140;SDS011;559;48.628;8.924;2023-07-29T00:25:14;153.27;;;144.57;;
1140;SDS011;559;48.628;8.924;2023-07-29T00:27:41;152.83;;;144.43;;
1140;SDS011;559;48.628;8.924;2023-07-29T00:30:08;142.23;;;133.60;;
1140;SDS011;559;48.628;8.924;2023-07-29T00:32:35;143.37;;;135.30;;
1140;SDS011;559;48.628;8.924;2023-07-29T00:35:01;145.03;;;136.53;;
1140;SDS011;559;48.628;8.924;2023-07-29T00:37:30;154.93;;;146.53;;
1140;SDS011;559;48.628;8.924;2023-07-29T00:39:56;155.20;;;146.80;;
1140;SDS011;559;48.628;8.924;2023-07-29T00:42:23;163.13;;;154.43;;
1140;SDS011;559;48.628;8.924;2023-07-29T00:44:50;155.67;;;147.27;;
1140;SDS011;559;48.628;8.924;2023-07-29T00:47:16;150.87;;;142.47;;
1140;SDS011;559;48.628;8.924;2023-07-29T00:49:43;151.23;;;142.93;;
1140;SDS011;559;48.628;8.924;2023-07-29T00:52:10;157.73;;;149.03;;
1140;SDS011;559;48.628;8.924;2023-07-29T00:54:38;177.73;;;168.73;;
1140;SDS011;559;48.628;8.924;2023-07-29T00:57:05;161.90;;;153.20;;
1140;SDS011;559;48.628;8.924;2023-07-29T00:59:32;167.63;;;158.87;;
1140;SDS011;559;48.628;8.924;2023-07-29T01:02:01;161.53;;;152.80;;
1140;SDS011;559;48.628;8.924;2023-07-29T01:04:27;159.57;;;150.97;;
1140;SDS011;559;48.628;8.924;2023-07-29T01:06:56;150.60;;;141.87;;
1140;SDS011;559;48.628;8.924;2023-07-29T01:09:34;149.07;;;140.67;;
1140;SDS011;559;48.628;8.924;2023-07-29T01:12:08;152.20;;;144.00;;
1140;SDS011;559;48.628;8.924;2023-07-29T01:14:39;155.13;;;146.67;;
1140;SDS011;559;48.628;8.924;2023-07-29T01:17:09;149.60;;;141.20;;
1140;SDS011;559;48.628;8.924;2023-07-29T01:19:42;137.87;;;129.73;;
1140;SDS011;559;48.628;8.924;2023-07-29T01:22:13;145.40;;;136.97;;
1140;SDS011;559;48.628;8.924;2023-07-29T01:24:42;155.90;;;147.30;;
1140;SDS011;559;48.628;8.924;2023-07-29T01:27:08;152.20;;;143.80;;
1140;SDS011;559;48.628;8.924;2023-07-29T01:29:35;142.20;;;134.20;;
1140;SDS011;559;48.628;8.924;2023-07-29T01:32:04;151.30;;;143.00;;
1140;SDS011;559;48.628;8.924;2023-07-29T01:34:35;149.80;;;141.40;;
1140;SDS011;559;48.628;8.924;2023-07-29T01:37:06;153.20;;;144.80;;
1140;SDS011;559;48.628;8.924;2023-07-29T01:39:34;150.23;;;142.03;;
1140;SDS011;559;48.628;8.924;2023-07-29T01:42:04;146.43;;;138.13;;
1140;SDS011;559;48.628;8.924;2023-07-29T01:44:31;144.97;;;136.77;;
1140;SDS011;559;48.628;8.924;2023-07-29T01:46:59;146.57;;;138.27;;
1140;SDS011;559;48.628;8.924;2023-07-29T01:49:25;153.33;;;144.83;;
1140;SDS011;559;48.628;8.924;2023-07-29T01:51:52;147.40;;;139.10;;
1140;SDS011;559;48.628;8.924;2023-07-29T01:54:18;156.47;;;147.60;;
1140;SDS011;559;48.628;8.924;2023-07-29T01:56:45;162.80;;;153.70;;
1140;SDS011;559;48.628;8.924;2023-07-29T01:59:13;154.50;;;145.53;;
1140;SDS011;559;48.628;8.924;2023-07-29T02:01:41;154.23;;;145.53;;
1140;SDS011;559;48.628;8.924;2023-07-29T02:04:07;155.40;;;146.27;;
1140;SDS011;559;48.628;8.924;2023-07-29T02:06:34;154.93;;;146.53;;
1140;SDS011;559;48.628;8.924;2023-07-29T02:09:01;156.20;;;147.60;;
1140;SDS011;559;48.628;8.924;2023-07-29T02:11:29;170.70;;;161.43;;
1140;SDS011;559;48.628;8.924;2023-07-29T02:13:56;152.70;;;143.73;;
1140;SDS011;559;48.628;8.924;2023-07-29T02:16:24;149.90;;;141.20;;
1140;SDS011;559;48.628;8.924;2023-07-29T02:18:50;153.30;;;144.40;;
1140;SDS011;559;48.628;8.924;2023-07-29T02:21:17;150.50;;;142.20;;
1140;SDS011;559;48.628;8.924;2023-07-29T02:23:43;160.93;;;152.23;;
1140;SDS011;559;48.628;8.924;2023-07-29T02:26:10;150.63;;;142.03;;
1140;SDS011;559;48.628;8.924;2023-07-29T02:28:37;150.10;;;141.73;;
1140;SDS011;559;48.628;8.924;2023-07-29T02:31:12;136.90;;;129.07;;
1140;SDS011;559;48.628;8.924;2023-07-29T02:33:42;145.33;;;137.37;;
1140;SDS011;559;48.628;8.924;2023-07-29T02:36:08;140.03;;;132.13;;
1140;SDS011;559;48.628;8.924;2023-07-29T02:38:35;146.43;;;138.20;;
1140;SDS011;559;48.628;8.924;2023-07-29T02:41:01;144.00;;;135.43;;
1140;SDS011;559;48.628;8.924;2023-07-29T02:43:28;130.93;;;123.33;;
1140;SDS011;559;48.628;8.924;2023-07-29T02:45:54;136.60;;;128.90;;
1140;SDS011;559;48.628;8.924;2023-07-29T02:48:21;144.20;;;135.80;;
1140;SDS011;559;48.628;8.924;2023-07-29T02:50:49;130.47;;;122.70;;
1140;SDS011;559;48.628;8.924;2023-07-29T02:53:15;125.33;;;117.83;;
1140;SDS011;559;48.628;8.924;2023-07-29T02:55:42;132.90;;;125.30;;
1140;SDS011;559;48.628;8.924;2023-07-29T02:58:08;133.83;;;126.23;;
1140;SDS011;559;48.628;8.924;2023-07-29T03:00:35;127.47;;;120.07;;
1140;SDS011;559;48.628;8.924;2023-07-29T03:03:01;134.13;;;126.53;;
1140;SDS011;559;48.628;8.924;2023-07-29T03:05:28;126.67;;;119.17;;
1140;SDS011;559;48.628;8.924;2023-07-29T03:07:56;128.10;;;120.50;;
1140;SDS011;559;48.628;8.924;2023-07-29T03:10:23;130.67;;;123.17;;
1140;SDS011;559;48.628;8.924;2023-07-29T03:12:50;137.03;;;129.43;;
1140;SDS011;559;48.628;8.924;2023-07-29T03:15:16;127.80;;;120.50;;
1140;SDS011;559;48.628;8.924;2023-07-29T03:17:43;135.83;;;128.33;;
1140;SDS011;559;48.628;8.924;2023-07-29T03:20:09;128.90;;;121.50;;
1140;SDS011;559;48.628;8.924;2023-07-29T03:22:37;124.43;;;117.03;;
1140;SDS011;559;48.628;8.924;2023-07-29T03:25:05;126.63;;;119.13;;
1140;SDS011;559;48.628;8.924;2023-07-29T03:27:32;124.53;;;117.53;;
1140;SDS011;559;48.628;8.924;2023-07-29T03:29:58;131.20;;;123.77;;
1140;SDS011;559;48.628;8.924;2023-07-29T03:32:25;118.27;;;111.50;;
1140;SDS011;559;48.628;8.924;2023-07-29T03:34:52;119.73;;;112.73;;
1140;SDS011;559;48.628;8.924;2023-07-29T03:37:19;121.50;;;114.50;;
1140;SDS011;559;48.628;8.924;2023-07-29T03:39:46;123.80;;;116.80;;
1140;SDS011;559;48.628;8.924;2023-07-29T03:42:14;117.33;;;110.53;;
1140;SDS011;559;48.628;8.924;2023-07-29T03:44:40;117.60;;;110.70;;
1140;SDS011;559;48.628;8.924;2023-07-29T03:47:07;116.07;;;109.37;;
1140;SDS011;559;48.628;8.924;2023-07-29T03:49:33;109.33;;;102.73;;
1140;SDS011;559;48.628;8.924;2023-07-29T03:52:00;120.33;;;113.53;;
1140;SDS011;559;48.628;8.924;2023-07-29T03:54:27;108.73;;;102.23;;
1140;SDS011;559;48.628;8.924;2023-07-29T03:56:53;114.90;;;108.20;;
1140;SDS011;559;48.628;8.924;2023-07-29T03:59:21;108.37;;;101.77;;
1140;SDS011;559;48.628;8.924;2023-07-29T04:01:48;110.77;;;104.07;;
1140;SDS011;559;48.628;8.924;2023-07-29T04:04:15;119.00;;;112.13;;
1140;SDS011;559;48.628;8.924;2023-07-29T04:06:41;116.60;;;109.53;;
1140;SDS011;559;48.628;8.924;2023-07-29T04:09:08;112.07;;;105.47;;
1140;SDS011;559;48.628;8.924;2023-07-29T04:11:34;120.00;;;113.20;;
1140;SDS011;559;48.628;8.924;2023-07-29T04:14:01;123.33;;;115.90;;
1140;SDS011;559;48.628;8.924;2023-07-29T04:16:28;119.20;;;112.20;;
1140;SDS011;559;48.628;8.924;2023-07-29T04:18:55;119.80;;;112.80;;
1140;SDS011;559;48.628;8.924;2023-07-29T04:21:22;115.33;;;108.43;;
1140;SDS011;559;48.628;8.924;2023-07-29T04:23:48;123.70;;;116.77;;
1140;SDS011;559;48.628;8.924;2023-07-29T04:26:15;124.27;;;117.07;;
1140;SDS011;559;48.628;8.924;2023-07-29T04:28:41;120.73;;;113.53;;
1140;SDS011;559;48.628;8.924;2023-07-29T04:31:08;117.33;;;110.30;;
1140;SDS011;559;48.628;8.924;2023-07-29T04:33:36;120.67;;;113.57;;
1140;SDS011;559;48.628;8.924;2023-07-29T04:36:02;118.60;;;111.50;;
1140;SDS011;559;48.628;8.924;2023-07-29T04:38:30;124.37;;;117.27;;
1140;SDS011;559;48.628;8.924;2023-07-29T04:40:57;124.10;;;116.80;;
1140;SDS011;559;48.628;8.924;2023-07-29T04:43:26;120.10;;;112.93;;
1140;SDS011;559;48.628;8.924;2023-07-29T04:45:53;123.97;;;116.27;;
1140;SDS011;559;48.628;8.924;2023-07-29T04:48:19;124.57;;;117.27;;
1140;SDS011;559;48.628;8.924;2023-07-29T04:50:47;148.33;;;139.63;;
1140;SDS011;559;48.628;8.924;2023-07-29T04:53:14;132.87;;;125.17;;
1140;SDS011;559;48.628;8.924;2023-07-29T04:55:41;129.43;;;121.53;;
1140;SDS011;559;48.628;8.924;2023-07-29T04:58:08;123.53;;;116.03;;
1140;SDS011;559;48.628;8.924;2023-07-29T05:00:34;124.23;;;116.63;;
1140;SDS011;559;48.628;8.924;2023-07-29T05:03:01;123.87;;;116.43;;
1140;SDS011;559;48.628;8.924;2023-07-29T05:05:27;131.27;;;123.67;;
1140;SDS011;559;48.628;8.924;2023-07-29T05:07:55;129.33;;;121.70;;
1140;SDS011;559;48.628;8.924;2023-07-29T05:10:22;129.10;;;121.50;;
1140;SDS011;559;48.628;8.924;2023-07-29T05:12:48;127.70;;;120.10;;
1140;SDS011;559;48.628;8.924;2023-07-29T05:15:15;126.90;;;119.40;;
1140;SDS011;559;48.628;8.924;2023-07-29T05:17:41;122.23;;;114.93;;
1140;SDS011;559;48.628;8.924;2023-07-29T05:20:08;122.90;;;114.33;;
1140;SDS011;559;48.628;8.924;2023-07-29T05:22:35;123.17;;;115.87;;
1140;SDS011;559;48.628;8.924;2023-07-29T05:25:03;117.37;;;110.47;;
1140;SDS011;559;48.628;8.924;2023-07-29T05:27:31;114.87;;;108.00;;
1140;SDS011;559;48.628;8.924;2023-07-29T05:29:57;117.70;;;110.70;;
1140;SDS011;559;48.628;8.924;2023-07-29T05:32:24;120.50;;;113.07;;
1140;SDS011;559;48.628;8.924;2023-07-29T05:34:51;123.20;;;115.80;;
1140;SDS011;559;48.628;8.924;2023-07-29T05:37:18;118.50;;;111.50;;
1140;SDS011;559;48.628;8.924;2023-07-29T05:39:45;106.87;;;100.17;;
1140;SDS011;559;48.628;8.924;2023-07-29T05:42:13;108.30;;;101.50;;
1140;SDS011;559;48.628;8.924;2023-07-29T05:44:41;107.70;;;101.13;;
1140;SDS011;559;48.628;8.924;2023-07-29T05:47:07;107.07;;;100.50;;
1140;SDS011;559;48.628;8.924;2023-07-29T05:49:34;105.80;;;99.30;;
1140;SDS011;559;48.628;8.924;2023-07-29T05:52:00;107.73;;;101.13;;
1140;SDS011;559;48.628;8.924;2023-07-29T05:54:27;102.90;;;96.50;;
1140;SDS011;559;48.628;8.924;2023-07-29T05:56:54;105.57;;;99.07;;
1140;SDS011;559;48.628;8.924;2023-07-29T05:59:21;102.80;;;96.50;;
1140;SDS011;559;48.628;8.924;2023-07-29T06:01:48;102.47;;;96.17;;
1140;SDS011;559;48.628;8.924;2023-07-29T06:04:14;103.73;;;97.10;;
1140;SDS011;559;48.628;8.924;2023-07-29T06:06:41;96.73;;;90.73;;
1140;SDS011;559;48.628;8.924;2023-07-29T06:09:07;100.37;;;94.27;;
1140;SDS011;559;48.628;8.924;2023-07-29T06:11:34;100.00;;;93.90;;
1140;SDS011;559;48.628;8.924;2023-07-29T06:14:01;99.90;;;93.80;;
1140;SDS011;559;48.628;8.924;2023-07-29T06:16:29;99.50;;;93.40;;
1140;SDS011;559;48.628;8.924;2023-07-29T06:18:56;91.27;;;85.70;;
1140;SDS011;559;48.628;8.924;2023-07-29T06:21:23;92.07;;;86.23;;
1140;SDS011;559;48.628;8.924;2023-07-29T06:23:52;91.30;;;85.60;;
1140;SDS011;559;48.628;8.924;2023-07-29T06:26:18;96.83;;;90.87;;
1140;SDS011;559;48.628;8.924;2023-07-29T06:28:45;108.90;;;102.30;;
1140;SDS011;559;48.628;8.924;2023-07-29T06:31:11;111.43;;;104.60;;
1140;SDS011;559;48.628;8.924;2023-07-29T06:33:39;116.00;;;109.30;;
1140;SDS011;559;48.628;8.924;2023-07-29T06:36:06;108.70;;;101.67;;
1140;SDS011;559;48.628;8.924;2023-07-29T06:38:32;110.57;;;103.83;;
1140;SDS011;559;48.628;8.924;2023-07-29T06:40:59;105.87;;;99.27;;
1140;SDS011;559;48.628;8.924;2023-07-29T06:43:28;108.73;;;102.07;;
1140;SDS011;559;48.628;8.924;2023-07-29T06:45:55;114.40;;;107.47;;
1140;SDS011;559;48.628;8.924;2023-07-29T06:48:21;102.97;;;96.57;;
1140;SDS011;559;48.628;8.924;2023-07-29T06:50:49;118.50;;;111.60;;
1140;SDS011;559;48.628;8.924;2023-07-29T06:53:17;123.37;;;116.30;;
1140;SDS011;559;48.628;8.924;2023-07-29T06:55:43;116.07;;;109.13;;
1140;SDS011;559;48.628;8.924;2023-07-29T06:58:10;119.50;;;112.40;;
1140;SDS011;559;48.628;8.924;2023-07-29T07:00:37;118.60;;;111.60;;
1140;SDS011;559;48.628;8.924;2023-07-29T07:03:03;106.73;;;100.13;;
1140;SDS011;559;48.628;8.924;2023-07-29T07:05:29;105.70;;;99.10;;
1140;SDS011;559;48.628;8.924;2023-07-29T07:07:57;113.23;;;106.53;;
1140;SDS011;559;48.628;8.924;2023-07-29T07:10:24;122.90;;;115.43;;
1140;SDS011;559;48.628;8.924;2023-07-29T07:12:50;118.97;;;111.43;;
1140;SDS011;559;48.628;8.924;2023-07-29T07:15:17;117.97;;;111.17;;
1140;SDS011;559;48.628;8.924;2023-07-29T07:17:44;114.27;;;107.47;;
1140;SDS011;559;48.628;8.924;2023-07-29T07:20:11;106.37;;;99.87;;
1140;SDS011;559;48.628;8.924;2023-07-29T07:22:37;106.10;;;99.60;;
1140;SDS011;559;48.628;8.924;2023-07-29T07:25:06;111.70;;;104.83;;
1140;SDS011;559;48.628;8.924;2023-07-29T07:27:33;107.17;;;100.77;;
1140;SDS011;559;48.628;8.924;2023-07-29T07:29:59;108.83;;;102.20;;
1140;SDS011;559;48.628;8.924;2023-07-29T07:32:26;104.60;;;98.40;;
1140;SDS011;559;48.628;8.924;2023-07-29T07:34:52;103.57;;;97.47;;
1140;SDS011;559;48.628;8.924;2023-07-29T07:37:19;102.57;;;96.50;;
1140;SDS011;559;48.628;8.924;2023-07-29T07:39:45;101.20;;;94.90;;
1140;SDS011;559;48.628;8.924;2023-07-29T07:42:13;98.77;;;92.73;;
1140;SDS011;559;48.628;8.924;2023-07-29T07:44:39;90.20;;;84.50;;
1140;SDS011;559;48.628;8.924;2023-07-29T07:47:06;92.23;;;86.63;;
1140;SDS011;559;48.628;8.924;2023-07-29T07:49:33;94.17;;;88.57;;
1140;SDS011;559;48.628;8.924;2023-07-29T07:51:59;90.97;;;85.40;;
1140;SDS011;559;48.628;8.924;2023-07-29T07:54:26;90.17;;;84.70;;
1140;SDS011;559;48.628;8.924;2023-07-29T07:56:52;88.03;;;82.63;;
1140;SDS011;559;48.628;8.924;2023-07-29T07:59:20;89.30;;;83.80;;
1140;SDS011;559;48.628;8.924;2023-07-29T08:01:47;96.10;;;90.50;;
1140;SDS011;559;48.628;8.924;2023-07-29T08:04:13;99.87;;;94.07;;
1140;SDS011;559;48.628;8.924;2023-07-29T08:06:40;99.80;;;94.10;;
1140;SDS011;559;48.628;8.924;2023-07-29T08:09:06;96.23;;;90.53;;
1140;SDS011;559;48.628;8.924;2023-07-29T08:11:33;99.13;;;93.20;;
1140;SDS011;559;48.628;8.924;2023-07-29T08:13:59;91.50;;;85.90;;
1140;SDS011;559;48.628;8.924;2023-07-29T08:16:27;93.37;;;87.63;;
1140;SDS011;559;48.628;8.924;2023-07-29T08:18:53;91.60;;;86.10;;
1140;SDS011;559;48.628;8.924;2023-07-29T08:21:20;88.30;;;82.87;;
1140;SDS011;559;48.628;8.924;2023-07-29T08:23:46;91.73;;;86.13;;
1140;SDS011;559;48.628;8.924;2023-07-29T08:26:13;103.00;;;97.00;;
1140;SDS011;559;48.628;8.924;2023-07-29T08:28:40;92.30;;;86.70;;
1140;SDS011;559;48.628;8.924;2023-07-29T08:31:06;90.80;;;85.20;;
1140;SDS011;559;48.628;8.924;2023-07-29T08:33:34;97.23;;;91.27;;
1140;SDS011;559;48.628;8.924;2023-07-29T08:36:01;95.70;;;89.70;;
1140;SDS011;559;48.628;8.924;2023-07-29T08:38:27;102.70;;;96.53;;
1140;SDS011;559;48.628;8.924;2023-07-29T08:40:57;97.17;;;91.50;;
1140;SDS011;559;48.628;8.924;2023-07-29T08:43:26;90.40;;;85.10;;
1140;SDS011;559;48.628;8.924;2023-07-29T08:45:55;92.50;;;87.20;;
1140;SDS011;559;48.628;8.924;2023-07-29T08:48:23;93.13;;;87.53;;
1140;SDS011;559;48.628;8.924;2023-07-29T08:50:57;87.70;;;82.47;;
1140;SDS011;559;48.628;8.924;2023-07-29T08:53:24;81.40;;;76.50;;
1140;SDS011;559;48.628;8.924;2023-07-29T08:55:51;73.33;;;68.63;;
1140;SDS011;559;48.628;8.924;2023-07-29T08:58:20;76.47;;;71.87;;
1140;SDS011;559;48.628;8.924;2023-07-29T09:00:47;76.60;;;71.60;;
1140;SDS011;559;48.628;8.924;2023-07-29T09:03:14;78.70;;;73.80;;
1140;SDS011;559;48.628;8.924;2023-07-29T09:05:40;83.60;;;78.47;;
1140;SDS011;559;48.628;8.924;2023-07-29T09:08:08;70.60;;;66.00;;
1140;SDS011;559;48.628;8.924;2023-07-29T09:10:36;77.20;;;72.20;;
1140;SDS011;559;48.628;8.924;2023-07-29T09:13:02;68.10;;;63.77;;
1140;SDS011;559;48.628;8.924;2023-07-29T09:15:29;67.00;;;62.60;;
1140;SDS011;559;48.628;8.924;2023-07-29T09:17:57;62.80;;;58.57;;
1140;SDS011;559;48.628;8.924;2023-07-29T09:20:25;66.27;;;62.17;;
1140;SDS011;559;48.628;8.924;2023-07-29T09:22:52;66.50;;;62.40;;
1140;SDS011;559;48.628;8.924;2023-07-29T09:25:23;61.00;;;57.20;;
1140;SDS011;559;48.628;8.924;2023-07-29T09:27:50;58.00;;;54.20;;
1140;SDS011;559;48.628;8.924;2023-07-29T09:30:17;58.83;;;55.03;;
1140;SDS011;559;48.628;8.924;2023-07-29T09:32:44;58.17;;;54.27;;
1140;SDS011;559;48.628;8.924;2023-07-29T09:35:11;55.30;;;51.40;;
1140;SDS011;559;48.628;8.924;2023-07-29T09:37:37;51.27;;;47.77;;
1140;SDS011;559;48.628;8.924;2023-07-29T09:40:05;50.43;;;47.03;;
1140;SDS011;559;48.628;8.924;2023-07-29T09:42:34;45.73;;;42.50;;
1140;SDS011;559;48.628;8.924;2023-07-29T09:45:00;45.63;;;42.33;;
1140;SDS011;559;48.628;8.924;2023-07-29T09:47:27;46.40;;;43.13;;
1140;SDS011;559;48.628;8.924;2023-07-29T09:49:54;46.23;;;42.93;;
1140;SDS011;559;48.628;8.924;2023-07-29T09:52:21;50.30;;;46.90;;
1140;SDS011;559;48.628;8.924;2023-07-29T09:54:49;42.77;;;39.33;;
1140;SDS011;559;48.628;8.924;2023-07-29T09:57:16;41.40;;;38.50;;
1140;SDS011;559;48.628;8.924;2023-07-29T09:59:44;41.33;;;38.50;;
1140;SDS011;559;48.628;8.924;2023-07-29T10:02:19;47.17;;;44.47;;
1140;SDS011;559;48.628;8.924;2023-07-29T10:04:47;45.63;;;43.17;;
1140;SDS011;559;48.628;8.924;2023-07-29T10:07:14;44.53;;;42.13;;
1140;SDS011;559;48.628;8.924;2023-07-29T10:09:41;44.40;;;41.90;;
1140;SDS011;559;48.628;8.924;2023-07-29T10:12:08;44.50;;;41.80;;
1140;SDS011;559;48.628;8.924;2023-07-29T10:14:36;44.40;;;42.00;;
1140;SDS011;559;48.628;8.924;2023-07-29T10:17:06;43.40;;;40.97;;
1140;SDS011;559;48.628;8.924;2023-07-29T10:19:32;42.27;;;39.97;;
1140;SDS011;559;48.628;8.924;2023-07-29T10:22:00;43.03;;;40.63;;
1140;SDS011;559;48.628;8.924;2023-07-29T10:24:30;43.37;;;41.13;;
1140;SDS011;559;48.628;8.924;2023-07-29T10:26:59;46.00;;;43.37;;
1140;SDS011;559;48.628;8.924;2023-07-29T10:29:28;41.97;;;39.97;;
1140;SDS011;559;48.628;8.924;2023-07-29T10:31:57;41.27;;;39.17;;
1140;SDS011;559;48.628;8.924;2023-07-29T10:34:25;41.20;;;39.27;;
1140;SDS011;559;48.628;8.924;2023-07-29T10:36:51;42.33;;;40.50;;
1140;SDS011;559;48.628;8.924;2023-07-29T10:39:18;42.20;;;40.40;;
1140;SDS011;559;48.628;8.924;2023-07-29T10:41:55;42.50;;;40.60;;
1140;SDS011;559;48.628;8.924;2023-07-29T10:47:18;43.53;;;41.77;;
1140;SDS011;559;48.628;8.924;2023-07-29T10:49:49;42.13;;;40.00;;
1140;SDS011;559;48.628;8.924;2023-07-29T10:52:17;43.30;;;41.70;;
1140;SDS011;559;48.628;8.924;2023-07-29T10:54:54;46.30;;;44.60;;
1140;SDS011;559;48.628;8.924;2023-07-29T10:57:29;46.80;;;45.10;;
1140;SDS011;559;48.628;8.924;2023-07-29T10:59:57;49.33;;;47.53;;
1140;SDS011;559;48.628;8.924;2023-07-29T11:02:28;44.17;;;42.77;;
1140;SDS011;559;48.628;8.924;2023-07-29T11:04:57;50.97;;;49.27;;
1140;SDS011;559;48.628;8.924;2023-07-29T11:07:24;48.90;;;47.40;;
1140;SDS011;559;48.628;8.924;2023-07-29T11:09:55;51.07;;;49.27;;
1140;SDS011;559;48.628;8.924;2023-07-29T11:12:35;53.50;;;51.73;;
1140;SDS011;559;48.628;8.924;2023-07-29T11:15:04;53.03;;;51.23;;
1140;SDS011;559;48.628;8.924;2023-07-29T11:17:33;50.00;;;48.40;;
1140;SDS011;559;48.628;8.924;2023-07-29T11:20:02;48.40;;;46.90;;
1140;SDS011;559;48.628;8.924;2023-07-29T11:22:29;48.00;;;46.60;;
1140;SDS011;559;48.628;8.924;2023-07-29T11:24:56;51.27;;;49.27;;
1140;SDS011;559;48.628;8.924;2023-07-29T11:27:22;49.47;;;47.93;;
1140;SDS011;559;48.628;8.924;2023-07-29T11:29:49;47.63;;;46.23;;
1140;SDS011;559;48.628;8.924;2023-07-29T11:32:15;53.33;;;51.73;;
1140;SDS011;559;48.628;8.924;2023-07-29T11:34:42;51.33;;;49.83;;
1140;SDS011;559;48.628;8.924;2023-07-29T11:37:10;57.90;;;56.10;;
1140;SDS011;559;48.628;8.924;2023-07-29T11:39:39;43.07;;;41.87;;
1140;SDS011;559;48.628;8.924;2023-07-29T11:42:06;46.87;;;45.47;;
1140;SDS011;559;48.628;8.924;2023-07-29T11:44:32;50.50;;;49.03;;
1140;SDS011;559;48.628;8.924;2023-07-29T11:46:59;48.70;;;47.33;;
1140;SDS011;559;48.628;8.924;2023-07-29T11:49:25;45.20;;;43.90;;
1140;SDS011;559;48.628;8.924;2023-07-29T11:51:52;47.50;;;45.67;;
1140;SDS011;559;48.628;8.924;2023-07-29T11:54:20;54.40;;;52.80;;
1140;SDS011;559;48.628;8.924;2023-07-29T11:56:48;57.17;;;55.37;;
1140;SDS011;559;48.628;8.924;2023-07-29T11:59:16;62.00;;;60.20;;
1140;SDS011;559;48.628;8.924;2023-07-29T12:01:43;42.97;;;41.77;;
1140;SDS011;559;48.628;8.924;2023-07-29T12:04:09;55.70;;;54.00;;
1140;SDS011;559;48.628;8.924;2023-07-29T12:06:36;38.10;;;37.00;;
1140;SDS011;559;48.628;8.924;2023-07-29T12:09:03;36.97;;;35.83;;
1140;SDS011;559;48.628;8.924;2023-07-29T12:11:32;31.33;;;30.33;;
1140;SDS011;559;48.628;8.924;2023-07-29T12:13:59;29.20;;;28.40;;
1140;SDS011;559;48.628;8.924;2023-07-29T12:16:25;41.40;;;40.30;;
1140;SDS011;559;48.628;8.924;2023-07-29T12:18:59;33.00;;;31.80;;
1140;SDS011;559;48.628;8.924;2023-07-29T12:21:26;32.37;;;31.27;;
1140;SDS011;559;48.628;8.924;2023-07-29T12:23:53;37.43;;;36.33;;
1140;SDS011;559;48.628;8.924;2023-07-29T12:26:19;42.03;;;40.83;;
1140;SDS011;559;48.628;8.924;2023-07-29T12:28:47;38.63;;;37.43;;
1140;SDS011;559;48.628;8.924;2023-07-29T12:31:13;39.03;;;37.93;;
1140;SDS011;559;48.628;8.924;2023-07-29T12:33:40;31.97;;;30.97;;
1140;SDS011;559;48.628;8.924;2023-07-29T12:36:07;22.50;;;21.70;;
1140;SDS011;559;48.628;8.924;2023-07-29T12:38:35;16.00;;;15.43;;
1140;SDS011;559;48.628;8.924;2023-07-29T12:41:04;15.63;;;14.70;;
1140;SDS011;559;48.628;8.924;2023-07-29T12:43:31;29.90;;;29.10;;
1140;SDS011;559;48.628;8.924;2023-07-29T12:46:01;22.30;;;21.50;;
1140;SDS011;559;48.628;8.924;2023-07-29T12:48:28;16.13;;;15.63;;
1140;SDS011;559;48.628;8.924;2023-07-29T12:50:55;20.20;;;19.57;;
1140;SDS011;559;48.628;8.924;2023-07-29T12:53:21;10.37;;;9.97;;
1140;SDS011;559;48.628;8.924;2023-07-29T12:55:49;12.83;;;12.40;;
1140;SDS011;559;48.628;8.924;2023-07-29T12:58:16;15.67;;;15.17;;
1140;SDS011;559;48.628;8.924;2023-07-29T13:07:51;14.80;;;14.30;;
1140;SDS011;559;48.628;8.924;2023-07-29T13:21:06;24.63;;;23.93;;
1140;SDS011;559;48.628;8.924;2023-07-29T13:31:24;11.80;;;11.30;;
1140;SDS011;559;48.628;8.924;2023-07-29T13:41:11;10.30;;;9.90;;
1140;SDS011;559;48.628;8.924;2023-07-29T13:45:13;10.60;;;10.20;;
1140;SDS011;559;48.628;8.924;2023-07-29T13:53:34;17.30;;;16.80;;
1140;SDS011;559;48.628;8.924;2023-07-29T13:59:13;14.80;;;14.30;;
1140;SDS011;559;48.628;8.924;2023-07-29T14:02:13;11.73;;;11.43;;
1140;SDS011;559;48.628;8.924;2023-07-29T14:04:57;14.60;;;14.10;;
1140;SDS011;559;48.628;8.924;2023-07-29T14:07:24;14.50;;;14.00;;
1140;SDS011;559;48.628;8.924;2023-07-29T14:09:50;12.83;;;12.43;;
1140;SDS011;559;48.628;8.924;2023-07-29T14:12:17;9.60;;;9.30;;
1140;SDS011;559;48.628;8.924;2023-07-29T14:14:43;11.17;;;10.80;;
1140;SDS011;559;48.628;8.924;2023-07-29T14:17:10;9.40;;;9.00;;
1140;SDS011;559;48.628;8.924;2023-07-29T14:19:36;8.70;;;8.40;;
1140;SDS011;559;48.628;8.924;2023-07-29T14:22:05;8.77;;;8.33;;
1140;SDS011;559;48.628;8.924;2023-07-29T14:24:31;9.70;;;9.40;;
1140;SDS011;559;48.628;8.924;2023-07-29T14:26:58;10.90;;;10.40;;
1140;SDS011;559;48.628;8.924;2023-07-29T14:29:25;10.73;;;10.23;;
1140;SDS011;559;48.628;8.924;2023-07-29T14:31:51;10.90;;;10.40;;
1140;SDS011;559;48.628;8.924;2023-07-29T14:34:18;9.40;;;9.10;;
1140;SDS011;559;48.628;8.924;2023-07-29T14:36:44;8.83;;;8.50;;
1140;SDS011;559;48.628;8.924;2023-07-29T14:39:13;10.13;;;9.80;;
1140;SDS011;559;48.628;8.924;2023-07-29T14:41:39;12.70;;;12.20;;
1140;SDS011;559;48.628;8.924;2023-07-29T14:44:06;12.60;;;12.20;;
1140;SDS011;559;48.628;8.924;2023-07-29T14:46:32;14.13;;;13.73;;
1140;SDS011;559;48.628;8.924;2023-07-29T14:48:59;17.83;;;17.10;;
1140;SDS011;559;48.628;8.924;2023-07-29T14:51:26;14.10;;;13.50;;
1140;SDS011;559;48.628;8.924;2023-07-29T14:53:52;13.70;;;13.20;;
1140;SDS011;559;48.628;8.924;2023-07-29T14:56:20;12.80;;;12.30;;
1140;SDS011;559;48.628;8.924;2023-07-29T14:58:49;15.83;;;15.23;;
1140;SDS011;559;48.628;8.924;2023-07-29T15:01:16;18.07;;;17.47;;
1140;SDS011;559;48.628;8.924;2023-07-29T15:03:43;16.43;;;15.93;;
1140;SDS011;559;48.628;8.924;2023-07-29T15:06:09;18.23;;;17.63;;
1140;SDS011;559;48.628;8.924;2023-07-29T15:08:36;16.63;;;16.13;;
1140;SDS011;559;48.628;8.924;2023-07-29T15:11:03;16.40;;;15.77;;
1140;SDS011;559;48.628;8.924;2023-07-29T15:13:31;15.53;;;14.93;;
1140;SDS011;559;48.628;8.924;2023-07-29T15:15:58;18.37;;;17.77;;
1140;SDS011;559;48.628;8.924;2023-07-29T15:18:24;19.63;;;18.93;;
1140;SDS011;559;48.628;8.924;2023-07-29T15:20:54;24.03;;;23.33;;
1140;SDS011;559;48.628;8.924;2023-07-29T15:23:21;23.17;;;22.43;;
1140;SDS011;559;48.628;8.924;2023-07-29T15:25:47;24.90;;;24.20;;
1140;SDS011;559;48.628;8.924;2023-07-29T15:28:14;19.83;;;19.23;;
1140;SDS011;559;48.628;8.924;2023-07-29T15:30:42;21.37;;;20.63;;
1140;SDS011;559;48.628;8.924;2023-07-29T15:33:08;22.80;;;22.20;;
1140;SDS011;559;48.628;8.924;2023-07-29T15:35:36;18.93;;;18.43;;